sensor_id;sensor_type;location;lat;lon;timestamp;pressure;altitude;pressure_sealevel;temperature;humidity
75936;BME280;64614;32.062;34.834;2024-01-30T00:00:02;101262.16;;;22.31;48.61
75936;BME280;64614;32.062;34.834;2024-01-30T00:02:29;101283.75;;;22.32;48.84
75936;BME280;64614;32.062;34.834;2024-01-30T00:04:55;101272.66;;;22.23;49.11
75936;BME280;64614;32.062;34.834;2024-01-30T00:07:21;101287.44;;;22.22;48.79
75936;BME280;64614;32.062;34.834;2024-01-30T00:09:47;101302.66;;;22.29;48.80
75936;BME280;64614;32.062;34.834;2024-01-30T00:12:14;101287.34;;;22.28;48.76
75936;BME280;64614;32.062;34.834;2024-01-30T00:14:42;101322.94;;;22.28;49.10
75936;BME280;64614;32.062;34.834;2024-01-30T00:17:08;101332.63;;;22.20;49.03
75936;BME280;64614;32.062;34.834;2024-01-30T00:19:34;101342.69;;;22.25;48.56
75936;BME280;64614;32.062;34.834;2024-01-30T00:22:05;101324.13;;;22.21;49.02
75936;BME280;64614;32.062;34.834;2024-01-30T00:24:31;101323.88;;;22.18;49.05
75936;BME280;64614;32.062;34.834;2024-01-30T00:26:56;101320.38;;;22.12;49.03
75936;BME280;64614;32.062;34.834;2024-01-30T00:29:24;101319.50;;;22.17;49.13
75936;BME280;64614;32.062;34.834;2024-01-30T00:31:55;101315.22;;;22.11;48.49
75936;BME280;64614;32.062;34.834;2024-01-30T00:34:22;101308.16;;;22.04;49.03
75936;BME280;64614;32.062;34.834;2024-01-30T00:36:47;101305.19;;;22.01;48.95
75936;BME280;64614;32.062;34.834;2024-01-30T00:39:13;101308.47;;;22.03;48.72
75936;BME280;64614;32.062;34.834;2024-01-30T00:41:41;101312.31;;;22.02;48.98
75936;BME280;64614;32.062;34.834;2024-01-30T00:44:07;101298.69;;;21.97;48.89
75936;BME280;64614;32.062;34.834;2024-01-30T00:46:32;101291.31;;;21.97;48.92
75936;BME280;64614;32.062;34.834;2024-01-30T00:48:58;101323.31;;;21.97;48.78
75936;BME280;64614;32.062;34.834;2024-01-30T00:51:23;101321.69;;;21.96;48.86
75936;BME280;64614;32.062;34.834;2024-01-30T00:53:49;101323.88;;;21.94;49.20
75936;BME280;64614;32.062;34.834;2024-01-30T00:56:15;101318.19;;;21.90;49.27
75936;BME280;64614;32.062;34.834;2024-01-30T00:58:43;101308.66;;;21.87;48.92
75936;BME280;64614;32.062;34.834;2024-01-30T01:01:09;101304.28;;;21.86;48.95
75936;BME280;64614;32.062;34.834;2024-01-30T01:03:34;101302.94;;;21.84;49.37
75936;BME280;64614;32.062;34.834;2024-01-30T01:06:00;101296.66;;;21.83;49.33
75936;BME280;64614;32.062;34.834;2024-01-30T01:08:26;101304.84;;;21.83;49.39
75936;BME280;64614;32.062;34.834;2024-01-30T01:10:52;101308.41;;;21.84;49.01
75936;BME280;64614;32.062;34.834;2024-01-30T01:13:26;101304.84;;;21.83;48.94
75936;BME280;64614;32.062;34.834;2024-01-30T01:15:52;101315.03;;;21.78;49.47
75936;BME280;64614;32.062;34.834;2024-01-30T01:18:17;101294.28;;;21.77;48.99
75936;BME280;64614;32.062;34.834;2024-01-30T01:20:43;101307.66;;;21.78;49.47
75936;BME280;64614;32.062;34.834;2024-01-30T01:23:09;101311.78;;;21.75;49.24
75936;BME280;64614;32.062;34.834;2024-01-30T01:25:34;101307.66;;;21.78;49.02
75936;BME280;64614;32.062;34.834;2024-01-30T01:28:00;101293.75;;;21.74;49.28
75936;BME280;64614;32.062;34.834;2024-01-30T01:30:26;101289.94;;;21.75;49.13
75936;BME280;64614;32.062;34.834;2024-01-30T01:32:54;101275.72;;;21.73;49.21
75936;BME280;64614;32.062;34.834;2024-01-30T01:35:25;101271.66;;;21.71;49.14
75936;BME280;64614;32.062;34.834;2024-01-30T01:37:52;101259.09;;;21.70;49.09
75936;BME280;64614;32.062;34.834;2024-01-30T01:40:22;101265.13;;;21.67;49.32
75936;BME280;64614;32.062;34.834;2024-01-30T01:42:52;101276.06;;;21.67;49.20
75936;BME280;64614;32.062;34.834;2024-01-30T01:45:18;101273.63;;;21.65;49.57
75936;BME280;64614;32.062;34.834;2024-01-30T01:47:45;101290.59;;;21.62;49.11
75936;BME280;64614;32.062;34.834;2024-01-30T01:50:13;101282.69;;;21.60;49.45
75936;BME280;64614;32.062;34.834;2024-01-30T01:52:44;101288.16;;;21.60;49.48
75936;BME280;64614;32.062;34.834;2024-01-30T01:55:10;101283.78;;;21.59;49.50
75936;BME280;64614;32.062;34.834;2024-01-30T01:57:36;101282.69;;;21.60;49.58
75936;BME280;64614;32.062;34.834;2024-01-30T02:00:04;101282.69;;;21.60;49.39
75936;BME280;64614;32.062;34.834;2024-01-30T02:02:30;101276.41;;;21.60;49.39
75936;BME280;64614;32.062;34.834;2024-01-30T02:04:58;101274.56;;;21.50;49.63
75936;BME280;64614;32.062;34.834;2024-01-30T02:07:24;101274.50;;;21.60;49.78
75936;BME280;64614;32.062;34.834;2024-01-30T02:09:50;101282.69;;;21.60;49.45
75936;BME280;64614;32.062;34.834;2024-01-30T02:12:16;101269.03;;;21.55;49.50
75936;BME280;64614;32.062;34.834;2024-01-30T02:14:48;101265.19;;;21.56;49.54
75936;BME280;64614;32.062;34.834;2024-01-30T02:17:15;101284.34;;;21.56;49.78
75936;BME280;64614;32.062;34.834;2024-01-30T02:19:41;101287.91;;;21.57;49.51
75936;BME280;64614;32.062;34.834;2024-01-30T02:22:08;101281.88;;;21.60;49.56
75936;BME280;64614;32.062;34.834;2024-01-30T02:24:34;101288.16;;;21.60;49.61
75936;BME280;64614;32.062;34.834;2024-01-30T02:26:59;101303.47;;;21.62;49.67
75936;BME280;64614;32.062;34.834;2024-01-30T02:31:56;101311.66;;;21.62;49.54
75936;BME280;64614;32.062;34.834;2024-01-30T02:34:23;101300.22;;;21.54;49.74
75936;BME280;64614;32.062;34.834;2024-01-30T02:36:49;101270.97;;;21.55;49.80
75936;BME280;64614;32.062;34.834;2024-01-30T02:39:14;101265.19;;;21.56;49.39
75936;BME280;64614;32.062;34.834;2024-01-30T02:41:40;101247.19;;;21.55;49.35
75936;BME280;64614;32.062;34.834;2024-01-30T02:44:07;101252.63;;;21.55;49.51
75936;BME280;64614;32.062;34.834;2024-01-30T02:46:33;101257.06;;;21.51;49.71
75936;BME280;64614;32.062;34.834;2024-01-30T02:48:58;101270.19;;;21.49;49.75
75936;BME280;64614;32.062;34.834;2024-01-30T02:51:24;101280.56;;;21.52;49.23
75936;BME280;64614;32.062;34.834;2024-01-30T02:53:50;101277.25;;;21.55;49.66
75936;BME280;64614;32.062;34.834;2024-01-30T02:56:15;101281.66;;;21.51;49.45
75936;BME280;64614;32.062;34.834;2024-01-30T02:58:42;101302.44;;;21.52;49.51
75936;BME280;64614;32.062;34.834;2024-01-30T03:01:09;101309.22;;;21.55;49.19
75936;BME280;64614;32.062;34.834;2024-01-30T03:03:34;101280.03;;;21.50;49.49
75936;BME280;64614;32.062;34.834;2024-01-30T03:06:03;101277.53;;;21.54;49.34
75936;BME280;64614;32.062;34.834;2024-01-30T03:08:29;101304.88;;;21.54;49.44
75936;BME280;64614;32.062;34.834;2024-01-30T03:10:56;101318.28;;;21.50;49.47
75936;BME280;64614;32.062;34.834;2024-01-30T03:13:25;101301.38;;;21.48;49.11
75936;BME280;64614;32.062;34.834;2024-01-30T03:15:54;101277.38;;;21.45;49.19
75936;BME280;64614;32.062;34.834;2024-01-30T03:18:26;101300.50;;;21.53;49.25
75936;BME280;64614;32.062;34.834;2024-01-30T03:20:51;101297.28;;;21.45;49.11
75936;BME280;64614;32.062;34.834;2024-01-30T03:23:17;101309.53;;;21.53;49.46
75936;BME280;64614;32.062;34.834;2024-01-30T03:25:43;101302.72;;;21.51;49.38
75936;BME280;64614;32.062;34.834;2024-01-30T03:28:09;101300.78;;;21.51;49.44
75936;BME280;64614;32.062;34.834;2024-01-30T03:30:36;101298.63;;;21.48;49.56
75936;BME280;64614;32.062;34.834;2024-01-30T03:33:02;101301.44;;;21.43;49.19
75936;BME280;64614;32.062;34.834;2024-01-30T03:35:29;101322.13;;;21.49;49.34
75936;BME280;64614;32.062;34.834;2024-01-30T03:37:59;101319.38;;;21.49;49.57
75936;BME280;64614;32.062;34.834;2024-01-30T03:40:25;101303.09;;;21.39;49.51
75936;BME280;64614;32.062;34.834;2024-01-30T03:42:51;101316.72;;;21.44;49.55
75936;BME280;64614;32.062;34.834;2024-01-30T03:45:16;101308.00;;;21.42;49.52
75936;BME280;64614;32.062;34.834;2024-01-30T03:47:44;101315.84;;;21.49;49.07
75936;BME280;64614;32.062;34.834;2024-01-30T03:50:10;101311.28;;;21.39;49.21
75936;BME280;64614;32.062;34.834;2024-01-30T03:52:36;101320.56;;;21.43;49.07
75936;BME280;64614;32.062;34.834;2024-01-30T03:55:03;101326.88;;;21.38;49.24
75936;BME280;64614;32.062;34.834;2024-01-30T03:57:32;101328.44;;;21.44;49.20
75936;BME280;64614;32.062;34.834;2024-01-30T04:00:00;101318.69;;;21.38;49.41
75936;BME280;64614;32.062;34.834;2024-01-30T04:02:26;101331.78;;;21.41;49.43
75936;BME280;64614;32.062;34.834;2024-01-30T04:04:51;101337.50;;;21.40;49.50
75936;BME280;64614;32.062;34.834;2024-01-30T04:07:17;101330.72;;;21.37;49.55
75936;BME280;64614;32.062;34.834;2024-01-30T04:09:43;101327.13;;;21.42;49.31
75936;BME280;64614;32.062;34.834;2024-01-30T04:12:08;101333.44;;;21.37;49.58
75936;BME280;64614;32.062;34.834;2024-01-30T04:14:34;101337.81;;;21.38;49.18
75936;BME280;64614;32.062;34.834;2024-01-30T04:17:00;101337.50;;;21.40;49.47
75936;BME280;64614;32.062;34.834;2024-01-30T04:19:26;101336.97;;;21.38;49.18
75936;BME280;64614;32.062;34.834;2024-01-30T04:21:52;101335.88;;;21.39;49.29
75936;BME280;64614;32.062;34.834;2024-01-30T04:24:18;101335.06;;;21.38;49.56
75936;BME280;64614;32.062;34.834;2024-01-30T04:26:45;101332.63;;;21.37;49.31
75936;BME280;64614;32.062;34.834;2024-01-30T04:29:11;101334.84;;;21.35;49.57
75936;BME280;64614;32.062;34.834;2024-01-30T04:31:38;101347.97;;;21.33;49.78
75936;BME280;64614;32.062;34.834;2024-01-30T04:34:03;101355.06;;;21.34;49.35
75936;BME280;64614;32.062;34.834;2024-01-30T04:36:29;101364.34;;;21.33;49.44
75936;BME280;64614;32.062;34.834;2024-01-30T04:38:54;101381.84;;;21.32;49.72
75936;BME280;64614;32.062;34.834;2024-01-30T04:41:21;101355.06;;;21.34;49.50
75936;BME280;64614;32.062;34.834;2024-01-30T04:43:47;101358.34;;;21.31;49.72
75936;BME280;64614;32.062;34.834;2024-01-30T04:46:13;101347.41;;;21.31;49.61
75936;BME280;64614;32.062;34.834;2024-01-30T04:48:38;101348.53;;;21.29;49.64
75936;BME280;64614;32.062;34.834;2024-01-30T04:51:04;101359.25;;;21.21;49.71
75936;BME280;64614;32.062;34.834;2024-01-30T04:53:30;101350.50;;;21.24;49.82
75936;BME280;64614;32.062;34.834;2024-01-30T04:55:56;101356.72;;;21.29;49.88
75936;BME280;64614;32.062;34.834;2024-01-30T04:58:22;101364.34;;;21.33;49.50
75936;BME280;64614;32.062;34.834;2024-01-30T05:00:47;101369.81;;;21.33;49.52
75936;BME280;64614;32.062;34.834;2024-01-30T05:03:18;101356.22;;;21.27;49.74
75936;BME280;64614;32.062;34.834;2024-01-30T05:05:45;101377.53;;;21.25;49.68
75936;BME280;64614;32.062;34.834;2024-01-30T05:08:11;101372.31;;;21.29;49.66
75936;BME280;64614;32.062;34.834;2024-01-30T05:10:37;101389.25;;;21.31;49.33
75936;BME280;64614;32.062;34.834;2024-01-30T05:13:02;101379.69;;;21.28;49.33
75936;BME280;64614;32.062;34.834;2024-01-30T05:15:28;101354.03;;;21.24;49.33
75936;BME280;64614;32.062;34.834;2024-01-30T05:17:54;101378.38;;;21.21;49.45
75936;BME280;64614;32.062;34.834;2024-01-30T05:22:49;101379.78;;;21.13;49.32
75936;BME280;64614;32.062;34.834;2024-01-30T05:25:15;101393.75;;;21.11;49.03
75936;BME280;64614;32.062;34.834;2024-01-30T05:27:40;101381.91;;;20.81;49.47
75936;BME280;64614;32.062;34.834;2024-01-30T05:30:07;101374.88;;;21.15;48.86
75936;BME280;64614;32.062;34.834;2024-01-30T05:32:32;101390.09;;;21.26;48.18
75936;BME280;64614;32.062;34.834;2024-01-30T05:34:58;101378.63;;;21.24;47.70
75936;BME280;64614;32.062;34.834;2024-01-30T05:37:24;101393.34;;;21.28;48.06
75936;BME280;64614;32.062;34.834;2024-01-30T05:39:50;101385.16;;;21.28;48.24
75936;BME280;64614;32.062;34.834;2024-01-30T05:42:16;101390.03;;;21.32;47.80
75936;BME280;64614;32.062;34.834;2024-01-30T05:44:42;101387.84;;;21.34;47.55
75936;BME280;64614;32.062;34.834;2024-01-30T05:47:08;101405.88;;;21.35;47.95
75936;BME280;64614;32.062;34.834;2024-01-30T05:49:34;101393.00;;;21.35;47.45
75936;BME280;64614;32.062;34.834;2024-01-30T05:52:02;101385.41;;;21.32;47.56
75936;BME280;64614;32.062;34.834;2024-01-30T05:54:27;101397.13;;;21.33;47.38
75936;BME280;64614;32.062;34.834;2024-01-30T05:57:02;101398.78;;;21.34;47.39
75936;BME280;64614;32.062;34.834;2024-01-30T05:59:28;101415.09;;;21.44;47.39
75936;BME280;64614;32.062;34.834;2024-01-30T06:01:53;101412.38;;;21.44;47.22
75936;BME280;64614;32.062;34.834;2024-01-30T06:04:20;101408.00;;;21.43;47.21
75936;BME280;64614;32.062;34.834;2024-01-30T06:06:45;101407.69;;;21.44;46.89
75936;BME280;64614;32.062;34.834;2024-01-30T06:09:11;101402.28;;;21.39;46.61
75936;BME280;64614;32.062;34.834;2024-01-30T06:11:38;101423.81;;;21.46;46.62
75936;BME280;64614;32.062;34.834;2024-01-30T06:14:04;101429.84;;;21.43;46.96
75936;BME280;64614;32.062;34.834;2024-01-30T06:16:29;101414.50;;;21.47;46.40
75936;BME280;64614;32.062;34.834;2024-01-30T06:18:55;101431.44;;;21.49;46.53
75936;BME280;64614;32.062;34.834;2024-01-30T06:21:21;101429.81;;;21.48;46.37
75936;BME280;64614;32.062;34.834;2024-01-30T06:23:47;101439.06;;;21.52;46.26
75936;BME280;64614;32.062;34.834;2024-01-30T06:26:12;101433.03;;;21.55;46.09
75936;BME280;64614;32.062;34.834;2024-01-30T06:28:38;101464.22;;;21.54;46.43
75936;BME280;64614;32.062;34.834;2024-01-30T06:31:05;101447.81;;;21.54;45.85
75936;BME280;64614;32.062;34.834;2024-01-30T06:33:31;101459.53;;;21.55;45.96
75936;BME280;64614;32.062;34.834;2024-01-30T06:35:58;101443.97;;;21.60;45.69
75936;BME280;64614;32.062;34.834;2024-01-30T06:38:28;101440.41;;;21.60;45.94
75936;BME280;64614;32.062;34.834;2024-01-30T06:40:54;101435.75;;;21.60;45.74
75936;BME280;64614;32.062;34.834;2024-01-30T06:50:58;101450.31;;;21.51;45.15
75936;BME280;64614;32.062;34.834;2024-01-30T06:53:24;101437.44;;;21.51;44.94
75936;BME280;64614;32.062;34.834;2024-01-30T06:55:54;101446.06;;;21.69;44.81
75936;BME280;64614;32.062;34.834;2024-01-30T06:58:29;101431.59;;;21.68;44.92
75936;BME280;64614;32.062;34.834;2024-01-30T07:00:59;101443.88;;;21.71;44.97
75936;BME280;64614;32.062;34.834;2024-01-30T07:03:26;101449.97;;;21.63;44.99
75936;BME280;64614;32.062;34.834;2024-01-30T07:06:08;101429.25;;;21.51;44.24
75936;BME280;64614;32.062;34.834;2024-01-30T07:08:55;101513.94;;;21.62;45.07
75936;BME280;64614;32.062;34.834;2024-01-30T07:11:27;101451.25;;;21.70;44.59
75936;BME280;64614;32.062;34.834;2024-01-30T07:13:54;101485.75;;;21.66;44.60
75936;BME280;64614;32.062;34.834;2024-01-30T07:16:20;101447.78;;;21.59;44.51
75936;BME280;64614;32.062;34.834;2024-01-30T07:18:45;101452.16;;;21.55;44.69
75936;BME280;64614;32.062;34.834;2024-01-30T07:21:12;101461.41;;;21.65;44.86
75936;BME280;64614;32.062;34.834;2024-01-30T07:23:38;101461.75;;;21.58;44.59
75936;BME280;64614;32.062;34.834;2024-01-30T07:26:19;101458.44;;;21.61;44.17
75936;BME280;64614;32.062;34.834;2024-01-30T07:28:49;101453.88;;;21.46;44.46
75936;BME280;64614;32.062;34.834;2024-01-30T07:31:15;101486.00;;;21.65;44.29
75936;BME280;64614;32.062;34.834;2024-01-30T07:33:42;101454.09;;;21.55;44.43
75936;BME280;64614;32.062;34.834;2024-01-30T07:36:11;101457.34;;;21.62;44.70
75936;BME280;64614;32.062;34.834;2024-01-30T07:38:38;101461.47;;;21.59;45.12
75936;BME280;64614;32.062;34.834;2024-01-30T07:41:04;101463.91;;;21.61;44.96
75936;BME280;64614;32.062;34.834;2024-01-30T07:43:29;101462.00;;;21.62;45.29
75936;BME280;64614;32.062;34.834;2024-01-30T07:45:55;101460.31;;;21.66;45.42
75936;BME280;64614;32.062;34.834;2024-01-30T07:48:21;101461.38;;;21.70;45.52
75936;BME280;64614;32.062;34.834;2024-01-30T07:50:46;101469.78;;;21.79;45.18
75936;BME280;64614;32.062;34.834;2024-01-30T07:53:12;101451.69;;;21.83;45.47
75936;BME280;64614;32.062;34.834;2024-01-30T07:58:06;101463.66;;;21.92;45.20
75936;BME280;64614;32.062;34.834;2024-01-30T08:00:32;101455.38;;;21.97;45.73
75936;BME280;64614;32.062;34.834;2024-01-30T08:02:58;101442.25;;;21.99;45.55
75936;BME280;64614;32.062;34.834;2024-01-30T08:05:24;101492.19;;;22.10;45.36
75936;BME280;64614;32.062;34.834;2024-01-30T08:07:49;101476.53;;;22.21;45.13
75936;BME280;64614;32.062;34.834;2024-01-30T08:10:15;101454.13;;;22.14;44.66
75936;BME280;64614;32.062;34.834;2024-01-30T08:12:43;101448.09;;;22.17;44.97
75936;BME280;64614;32.062;34.834;2024-01-30T08:15:11;101476.84;;;22.14;44.68
75936;BME280;64614;32.062;34.834;2024-01-30T08:17:40;101463.34;;;22.23;44.40
75936;BME280;64614;32.062;34.834;2024-01-30T08:20:11;101478.47;;;22.15;44.42
75936;BME280;64614;32.062;34.834;2024-01-30T08:22:43;101460.44;;;22.14;44.34
75936;BME280;64614;32.062;34.834;2024-01-30T08:25:10;101466.44;;;22.16;44.34
75936;BME280;64614;32.062;34.834;2024-01-30T08:27:37;101463.22;;;22.09;44.25
75936;BME280;64614;32.062;34.834;2024-01-30T08:30:07;101473.03;;;22.10;44.15
75936;BME280;64614;32.062;34.834;2024-01-30T08:32:33;101479.28;;;22.16;44.20
75936;BME280;64614;32.062;34.834;2024-01-30T08:34:59;101479.00;;;22.17;44.42
75936;BME280;64614;32.062;34.834;2024-01-30T08:37:25;101481.50;;;22.14;44.19
75936;BME280;64614;32.062;34.834;2024-01-30T08:39:51;101468.59;;;22.19;44.22
75936;BME280;64614;32.062;34.834;2024-01-30T08:42:18;101511.25;;;22.20;43.98
75936;BME280;64614;32.062;34.834;2024-01-30T08:44:48;101468.00;;;22.22;43.98
75936;BME280;64614;32.062;34.834;2024-01-30T08:47:15;101468.53;;;22.25;43.74
75936;BME280;64614;32.062;34.834;2024-01-30T08:49:43;101483.03;;;22.25;44.18
75936;BME280;64614;32.062;34.834;2024-01-30T08:52:12;101452.69;;;22.21;43.64
75936;BME280;64614;32.062;34.834;2024-01-30T08:54:38;101465.22;;;22.28;43.73
75936;BME280;64614;32.062;34.834;2024-01-30T08:57:04;101466.06;;;22.23;44.04
75936;BME280;64614;32.062;34.834;2024-01-30T08:59:30;101489.84;;;22.28;43.79
75936;BME280;64614;32.062;34.834;2024-01-30T09:01:55;101457.53;;;22.30;43.72
75936;BME280;64614;32.062;34.834;2024-01-30T09:04:24;101491.47;;;22.29;43.95
75936;BME280;64614;32.062;34.834;2024-01-30T09:06:52;101440.34;;;22.24;43.41
75936;BME280;64614;32.062;34.834;2024-01-30T09:09:18;101472.31;;;22.29;43.79
75936;BME280;64614;32.062;34.834;2024-01-30T09:11:44;101451.53;;;22.28;43.37
75936;BME280;64614;32.062;34.834;2024-01-30T09:14:10;101470.13;;;22.31;43.64
75936;BME280;64614;32.062;34.834;2024-01-30T09:16:37;101436.75;;;22.29;43.41
75936;BME280;64614;32.062;34.834;2024-01-30T09:19:02;101424.13;;;22.33;43.45
75936;BME280;64614;32.062;34.834;2024-01-30T09:21:31;101425.81;;;22.29;43.27
75936;BME280;64614;32.062;34.834;2024-01-30T09:24:02;101429.28;;;22.34;43.05
75936;BME280;64614;32.062;34.834;2024-01-30T09:26:32;101448.28;;;22.26;43.27
75936;BME280;64614;32.062;34.834;2024-01-30T09:28:57;101423.06;;;22.29;43.37
75936;BME280;64614;32.062;34.834;2024-01-30T09:31:24;101450.38;;;22.34;43.89
75936;BME280;64614;32.062;34.834;2024-01-30T09:33:50;101423.50;;;22.41;43.62
75936;BME280;64614;32.062;34.834;2024-01-30T09:36:16;101423.75;;;22.45;43.61
75936;BME280;64614;32.062;34.834;2024-01-30T09:38:44;101440.16;;;22.45;43.59
75936;BME280;64614;32.062;34.834;2024-01-30T09:41:09;101426.19;;;22.46;43.57
75936;BME280;64614;32.062;34.834;2024-01-30T09:43:38;101351.19;;;22.47;44.14
75936;BME280;64614;32.062;34.834;2024-01-30T09:46:05;101393.88;;;22.48;43.51
75936;BME280;64614;32.062;34.834;2024-01-30T09:48:34;101364.84;;;22.47;43.58
75936;BME280;64614;32.062;34.834;2024-01-30T09:51:00;101397.69;;;22.47;43.58
75936;BME280;64614;32.062;34.834;2024-01-30T09:53:26;101397.41;;;22.49;43.81
75936;BME280;64614;32.062;34.834;2024-01-30T09:55:52;101373.41;;;22.41;43.80
75936;BME280;64614;32.062;34.834;2024-01-30T09:58:17;101385.06;;;22.51;43.49
75936;BME280;64614;32.062;34.834;2024-01-30T10:00:43;101364.78;;;22.52;43.35
75936;BME280;64614;32.062;34.834;2024-01-30T10:03:09;101362.03;;;22.52;43.70
75936;BME280;64614;32.062;34.834;2024-01-30T10:05:35;101354.44;;;22.49;43.47
75936;BME280;64614;32.062;34.834;2024-01-30T10:08:06;101361.03;;;22.48;43.33
75936;BME280;64614;32.062;34.834;2024-01-30T10:10:35;101385.97;;;22.47;43.56
75936;BME280;64614;32.062;34.834;2024-01-30T10:13:01;101391.88;;;22.54;43.63
75936;BME280;64614;32.062;34.834;2024-01-30T10:15:28;101385.66;;;22.48;43.30
75936;BME280;64614;32.062;34.834;2024-01-30T10:17:55;101382.84;;;22.53;43.58
75936;BME280;64614;32.062;34.834;2024-01-30T10:20:21;101370.78;;;22.54;42.87
75936;BME280;64614;32.062;34.834;2024-01-30T10:22:48;101364.72;;;22.58;43.37
75936;BME280;64614;32.062;34.834;2024-01-30T10:25:15;101379.44;;;22.62;43.40
75936;BME280;64614;32.062;34.834;2024-01-30T10:27:41;101386.56;;;22.63;43.20
75936;BME280;64614;32.062;34.834;2024-01-30T10:30:08;101386.31;;;22.59;43.64
75936;BME280;64614;32.062;34.834;2024-01-30T10:32:33;101369.03;;;22.64;43.52
75936;BME280;64614;32.062;34.834;2024-01-30T10:34:59;101354.22;;;22.65;43.35
75936;BME280;64614;32.062;34.834;2024-01-30T10:37:25;101375.47;;;22.73;43.01
75936;BME280;64614;32.062;34.834;2024-01-30T10:39:53;101363.69;;;22.53;43.88
75936;BME280;64614;32.062;34.834;2024-01-30T10:42:21;101359.91;;;22.49;43.70
75936;BME280;64614;32.062;34.834;2024-01-30T10:47:28;101378.00;;;22.45;44.06
75936;BME280;64614;32.062;34.834;2024-01-30T10:49:55;101349.31;;;22.43;43.86
75936;BME280;64614;32.062;34.834;2024-01-30T10:52:23;101344.16;;;22.41;44.03
75936;BME280;64614;32.062;34.834;2024-01-30T10:54:54;101375.72;;;22.52;43.65
75936;BME280;64614;32.062;34.834;2024-01-30T10:57:23;101338.53;;;22.51;43.80
75936;BME280;64614;32.062;34.834;2024-01-30T10:59:53;101348.97;;;22.49;43.43
75936;BME280;64614;32.062;34.834;2024-01-30T11:02:20;101345.69;;;22.47;43.50
75936;BME280;64614;32.062;34.834;2024-01-30T11:04:49;101346.28;;;22.44;43.85
75936;BME280;64614;32.062;34.834;2024-01-30T11:07:18;101332.47;;;22.30;43.88
75936;BME280;64614;32.062;34.834;2024-01-30T11:10:12;101341.97;;;22.38;43.58
75936;BME280;64614;32.062;34.834;2024-01-30T11:12:40;101337.31;;;22.38;43.37
75936;BME280;64614;32.062;34.834;2024-01-30T11:15:17;101332.88;;;22.18;43.16
75936;BME280;64614;32.062;34.834;2024-01-30T11:17:43;101340.69;;;22.30;43.19
75936;BME280;64614;32.062;34.834;2024-01-30T11:20:16;101337.13;;;22.30;43.29
75936;BME280;64614;32.062;34.834;2024-01-30T11:22:46;101297.47;;;22.08;42.96
75936;BME280;64614;32.062;34.834;2024-01-30T11:27:44;101312.84;;;22.04;43.16
75936;BME280;64614;32.062;34.834;2024-01-30T11:30:22;101324.19;;;22.16;43.29
75936;BME280;64614;32.062;34.834;2024-01-30T11:33:26;101311.19;;;22.03;43.41
75936;BME280;64614;32.062;34.834;2024-01-30T11:36:02;101345.59;;;22.09;43.37
75936;BME280;64614;32.062;34.834;2024-01-30T11:38:34;101316.03;;;21.87;43.64
75936;BME280;64614;32.062;34.834;2024-01-30T11:41:10;101349.38;;;22.13;43.41
75936;BME280;64614;32.062;34.834;2024-01-30T11:43:36;101367.44;;;22.14;43.97
75936;BME280;64614;32.062;34.834;2024-01-30T11:46:06;101335.28;;;22.01;44.13
75936;BME280;64614;32.062;34.834;2024-01-30T11:48:35;101351.81;;;22.15;44.02
75936;BME280;64614;32.062;34.834;2024-01-30T11:51:01;101355.59;;;22.19;43.93
75936;BME280;64614;32.062;34.834;2024-01-30T11:53:27;101332.63;;;22.20;43.57
75936;BME280;64614;32.062;34.834;2024-01-30T11:55:53;101323.06;;;22.17;43.85
75936;BME280;64614;32.062;34.834;2024-01-30T11:58:19;101340.59;;;22.41;43.59
75936;BME280;64614;32.062;34.834;2024-01-30T12:00:53;101317.69;;;22.31;43.93
75936;BME280;64614;32.062;34.834;2024-01-30T12:03:23;101292.50;;;22.10;43.86
75936;BME280;64614;32.062;34.834;2024-01-30T12:05:56;101353.47;;;22.35;43.76
75936;BME280;64614;32.062;34.834;2024-01-30T12:08:24;101340.84;;;22.39;44.08
75936;BME280;64614;32.062;34.834;2024-01-30T12:11:00;101335.47;;;22.34;44.29
75936;BME280;64614;32.062;34.834;2024-01-30T12:13:31;101329.09;;;22.38;44.20
75936;BME280;64614;32.062;34.834;2024-01-30T12:15:56;101328.25;;;22.43;43.94
75936;BME280;64614;32.062;34.834;2024-01-30T12:18:22;101345.91;;;22.51;43.82
75936;BME280;64614;32.062;34.834;2024-01-30T12:21:01;101345.69;;;22.47;44.22
75936;BME280;64614;32.062;34.834;2024-01-30T12:23:29;101345.34;;;22.54;44.40
75936;BME280;64614;32.062;34.834;2024-01-30T12:25:57;101323.97;;;22.56;44.07
75936;BME280;64614;32.062;34.834;2024-01-30T12:28:22;101330.59;;;22.50;44.20
75936;BME280;64614;32.062;34.834;2024-01-30T12:30:49;101337.34;;;22.58;44.00
75936;BME280;64614;32.062;34.834;2024-01-30T12:33:20;101333.88;;;22.52;44.28
75936;BME280;64614;32.062;34.834;2024-01-30T12:35:47;101337.06;;;22.59;44.25
75936;BME280;64614;32.062;34.834;2024-01-30T12:38:16;101328.63;;;22.56;44.64
75936;BME280;64614;32.062;34.834;2024-01-30T12:40:42;101343.63;;;22.58;44.37
75936;BME280;64614;32.062;34.834;2024-01-30T12:43:08;101320.97;;;22.52;44.12
75936;BME280;64614;32.062;34.834;2024-01-30T12:45:34;101325.31;;;22.59;44.48
75936;BME280;64614;32.062;34.834;2024-01-30T12:47:59;101339.44;;;22.66;44.79
75936;BME280;64614;32.062;34.834;2024-01-30T12:50:26;101341.59;;;22.69;44.53
75936;BME280;64614;32.062;34.834;2024-01-30T12:52:52;101345.94;;;22.70;44.58
75936;BME280;64614;32.062;34.834;2024-01-30T12:55:17;101345.69;;;22.66;44.42
75936;BME280;64614;32.062;34.834;2024-01-30T12:57:43;101342.56;;;22.78;44.33
75936;BME280;64614;32.062;34.834;2024-01-30T13:00:09;101341.13;;;22.81;44.76